sensor_id;sensor_type;location;lat;lon;timestamp;P1;durP1;ratioP1;P2;durP2;ratioP2
50591;SDS011;36548;50.506;30.834;2023-03-01T00:00:30;11.32;;;9.88;;
50591;SDS011;36548;50.506;30.834;2023-03-01T00:01:39;12.90;;;9.68;;
50591;SDS011;36548;50.506;30.834;2023-03-01T00:02:48;12.25;;;10.42;;
50591;SDS011;36548;50.506;30.834;2023-03-01T00:03:57;12.00;;;9.52;;
50591;SDS011;36548;50.506;30.834;2023-03-01T00:05:08;14.37;;;10.10;;
50591;SDS011;36548;50.506;30.834;2023-03-01T00:06:18;13.42;;;10.20;;
50591;SDS011;36548;50.506;30.834;2023-03-01T00:07:27;12.18;;;10.62;;
50591;SDS011;36548;50.506;30.834;2023-03-01T00:08:36;10.57;;;8.80;;
50591;SDS011;36548;50.506;30.834;2023-03-01T00:09:46;12.13;;;10.05;;
50591;SDS011;36548;50.506;30.834;2023-03-01T00:12:14;11.32;;;9.55;;
50591;SDS011;36548;50.506;30.834;2023-03-01T00:13:23;12.08;;;9.80;;
50591;SDS011;36548;50.506;30.834;2023-03-01T00:14:31;13.67;;;9.92;;
50591;SDS011;36548;50.506;30.834;2023-03-01T00:15:41;12.35;;;9.22;;
50591;SDS011;36548;50.506;30.834;2023-03-01T00:16:50;11.98;;;9.90;;
50591;SDS011;36548;50.506;30.834;2023-03-01T00:18:00;10.97;;;9.47;;
50591;SDS011;36548;50.506;30.834;2023-03-01T00:19:13;11.65;;;9.78;;
50591;SDS011;36548;50.506;30.834;2023-03-01T00:20:25;12.75;;;10.20;;
50591;SDS011;36548;50.506;30.834;2023-03-01T00:21:40;10.90;;;9.02;;
50591;SDS011;36548;50.506;30.834;2023-03-01T00:22:50;12.68;;;9.82;;
50591;SDS011;36548;50.506;30.834;2023-03-01T00:23:59;12.23;;;9.62;;
50591;SDS011;36548;50.506;30.834;2023-03-01T00:25:08;12.63;;;10.22;;
50591;SDS011;36548;50.506;30.834;2023-03-01T00:26:18;10.73;;;8.92;;
50591;SDS011;36548;50.506;30.834;2023-03-01T00:27:29;12.80;;;9.92;;
50591;SDS011;36548;50.506;30.834;2023-03-01T00:28:39;11.68;;;10.30;;
50591;SDS011;36548;50.506;30.834;2023-03-01T00:29:50;11.15;;;9.92;;
50591;SDS011;36548;50.506;30.834;2023-03-01T00:31:05;11.28;;;9.14;;
50591;SDS011;36548;50.506;30.834;2023-03-01T00:32:15;11.85;;;10.18;;
50591;SDS011;36548;50.506;30.834;2023-03-01T00:33:24;13.25;;;10.90;;
50591;SDS011;36548;50.506;30.834;2023-03-01T00:34:33;13.95;;;10.25;;
50591;SDS011;36548;50.506;30.834;2023-03-01T00:35:42;13.30;;;10.50;;
50591;SDS011;36548;50.506;30.834;2023-03-01T00:36:57;11.83;;;9.83;;
50591;SDS011;36548;50.506;30.834;2023-03-01T00:38:08;14.00;;;10.25;;
50591;SDS011;36548;50.506;30.834;2023-03-01T00:39:17;12.80;;;10.00;;
50591;SDS011;36548;50.506;30.834;2023-03-01T00:40:27;13.52;;;10.33;;
50591;SDS011;36548;50.506;30.834;2023-03-01T00:41:37;13.75;;;10.72;;
50591;SDS011;36548;50.506;30.834;2023-03-01T00:42:49;13.82;;;9.97;;
50591;SDS011;36548;50.506;30.834;2023-03-01T00:43:58;13.97;;;10.27;;
50591;SDS011;36548;50.506;30.834;2023-03-01T00:45:14;13.08;;;10.42;;
50591;SDS011;36548;50.506;30.834;2023-03-01T00:46:24;14.52;;;10.07;;
50591;SDS011;36548;50.506;30.834;2023-03-01T00:47:34;14.98;;;9.82;;
50591;SDS011;36548;50.506;30.834;2023-03-01T00:48:44;14.93;;;10.27;;
50591;SDS011;36548;50.506;30.834;2023-03-01T00:49:55;12.00;;;9.70;;
50591;SDS011;36548;50.506;30.834;2023-03-01T00:51:11;14.35;;;10.83;;
50591;SDS011;36548;50.506;30.834;2023-03-01T00:52:30;13.35;;;9.78;;
50591;SDS011;36548;50.506;30.834;2023-03-01T00:53:39;12.08;;;9.77;;
50591;SDS011;36548;50.506;30.834;2023-03-01T00:54:54;13.27;;;10.13;;
50591;SDS011;36548;50.506;30.834;2023-03-01T00:56:04;12.53;;;10.08;;
50591;SDS011;36548;50.506;30.834;2023-03-01T00:57:21;11.35;;;10.03;;
50591;SDS011;36548;50.506;30.834;2023-03-01T00:58:30;13.78;;;10.28;;
50591;SDS011;36548;50.506;30.834;2023-03-01T00:59:40;13.03;;;10.52;;
50591;SDS011;36548;50.506;30.834;2023-03-01T01:00:49;12.17;;;9.85;;
50591;SDS011;36548;50.506;30.834;2023-03-01T01:02:00;11.45;;;9.75;;
50591;SDS011;36548;50.506;30.834;2023-03-01T01:03:09;13.80;;;10.13;;
50591;SDS011;36548;50.506;30.834;2023-03-01T01:04:19;13.10;;;10.53;;
50591;SDS011;36548;50.506;30.834;2023-03-01T01:05:28;13.08;;;10.37;;
50591;SDS011;36548;50.506;30.834;2023-03-01T01:06:42;12.07;;;9.68;;
50591;SDS011;36548;50.506;30.834;2023-03-01T01:07:58;12.18;;;9.87;;
50591;SDS011;36548;50.506;30.834;2023-03-01T01:09:06;11.67;;;9.95;;
50591;SDS011;36548;50.506;30.834;2023-03-01T01:11:27;11.60;;;10.30;;
50591;SDS011;36548;50.506;30.834;2023-03-01T01:12:37;13.85;;;10.25;;
50591;SDS011;36548;50.506;30.834;2023-03-01T01:13:48;12.87;;;10.13;;
50591;SDS011;36548;50.506;30.834;2023-03-01T01:14:58;13.22;;;10.88;;
50591;SDS011;36548;50.506;30.834;2023-03-01T01:16:08;10.95;;;9.03;;
50591;SDS011;36548;50.506;30.834;2023-03-01T01:17:17;11.55;;;9.60;;
50591;SDS011;36548;50.506;30.834;2023-03-01T01:18:26;12.08;;;9.48;;
50591;SDS011;36548;50.506;30.834;2023-03-01T01:19:41;12.28;;;9.80;;
50591;SDS011;36548;50.506;30.834;2023-03-01T01:20:52;12.35;;;10.17;;
50591;SDS011;36548;50.506;30.834;2023-03-01T01:22:01;11.43;;;9.72;;
50591;SDS011;36548;50.506;30.834;2023-03-01T01:23:10;12.02;;;9.65;;
50591;SDS011;36548;50.506;30.834;2023-03-01T01:24:19;11.58;;;9.23;;
50591;SDS011;36548;50.506;30.834;2023-03-01T01:25:28;12.38;;;9.53;;
50591;SDS011;36548;50.506;30.834;2023-03-01T01:26:37;10.63;;;9.45;;
50591;SDS011;36548;50.506;30.834;2023-03-01T01:27:48;11.93;;;9.63;;
50591;SDS011;36548;50.506;30.834;2023-03-01T01:28:57;11.70;;;9.30;;
50591;SDS011;36548;50.506;30.834;2023-03-01T01:30:06;12.88;;;10.32;;
50591;SDS011;36548;50.506;30.834;2023-03-01T01:31:16;14.00;;;9.52;;
50591;SDS011;36548;50.506;30.834;2023-03-01T01:32:33;12.63;;;9.65;;
50591;SDS011;36548;50.506;30.834;2023-03-01T01:33:41;12.53;;;9.70;;
50591;SDS011;36548;50.506;30.834;2023-03-01T01:34:52;10.92;;;9.14;;
50591;SDS011;36548;50.506;30.834;2023-03-01T01:36:01;12.15;;;9.50;;
50591;SDS011;36548;50.506;30.834;2023-03-01T01:37:11;12.58;;;9.77;;
50591;SDS011;36548;50.506;30.834;2023-03-01T01:38:20;11.37;;;10.03;;
50591;SDS011;36548;50.506;30.834;2023-03-01T01:39:29;12.30;;;9.63;;
50591;SDS011;36548;50.506;30.834;2023-03-01T01:40:45;11.77;;;9.80;;
50591;SDS011;36548;50.506;30.834;2023-03-01T01:41:57;11.75;;;9.57;;
50591;SDS011;36548;50.506;30.834;2023-03-01T01:43:09;12.38;;;9.63;;
50591;SDS011;36548;50.506;30.834;2023-03-01T01:44:29;12.35;;;9.40;;
50591;SDS011;36548;50.506;30.834;2023-03-01T01:48:13;14.32;;;9.78;;
50591;SDS011;36548;50.506;30.834;2023-03-01T01:50:44;13.90;;;10.48;;
50591;SDS011;36548;50.506;30.834;2023-03-01T01:52:00;14.38;;;10.45;;
50591;SDS011;36548;50.506;30.834;2023-03-01T01:53:12;11.13;;;9.90;;
50591;SDS011;36548;50.506;30.834;2023-03-01T01:54:34;11.98;;;10.52;;
50591;SDS011;36548;50.506;30.834;2023-03-01T01:57:16;11.70;;;9.75;;
50591;SDS011;36548;50.506;30.834;2023-03-01T01:58:35;12.95;;;10.78;;
50591;SDS011;36548;50.506;30.834;2023-03-01T01:59:49;12.60;;;9.75;;
50591;SDS011;36548;50.506;30.834;2023-03-01T02:01:04;13.70;;;10.75;;
50591;SDS011;36548;50.506;30.834;2023-03-01T02:02:15;16.88;;;10.62;;
50591;SDS011;36548;50.506;30.834;2023-03-01T02:03:27;12.60;;;10.35;;
50591;SDS011;36548;50.506;30.834;2023-03-01T02:04:41;12.07;;;9.60;;
50591;SDS011;36548;50.506;30.834;2023-03-01T02:05:53;12.43;;;9.95;;
50591;SDS011;36548;50.506;30.834;2023-03-01T02:07:14;15.75;;;11.33;;
50591;SDS011;36548;50.506;30.834;2023-03-01T02:08:26;13.57;;;10.20;;
50591;SDS011;36548;50.506;30.834;2023-03-01T02:09:47;13.85;;;10.50;;
50591;SDS011;36548;50.506;30.834;2023-03-01T02:11:01;13.70;;;10.95;;
50591;SDS011;36548;50.506;30.834;2023-03-01T02:12:12;12.93;;;10.67;;
50591;SDS011;36548;50.506;30.834;2023-03-01T02:13:24;12.60;;;10.00;;
50591;SDS011;36548;50.506;30.834;2023-03-01T02:14:35;12.03;;;9.88;;
50591;SDS011;36548;50.506;30.834;2023-03-01T02:15:46;13.03;;;10.83;;
50591;SDS011;36548;50.506;30.834;2023-03-01T02:16:56;13.52;;;10.72;;
50591;SDS011;36548;50.506;30.834;2023-03-01T02:18:06;13.23;;;10.28;;
50591;SDS011;36548;50.506;30.834;2023-03-01T02:21:11;12.23;;;9.88;;
50591;SDS011;36548;50.506;30.834;2023-03-01T02:22:24;12.17;;;9.62;;
50591;SDS011;36548;50.506;30.834;2023-03-01T02:23:37;12.57;;;10.05;;
50591;SDS011;36548;50.506;30.834;2023-03-01T02:24:57;11.50;;;10.02;;
50591;SDS011;36548;50.506;30.834;2023-03-01T02:26:35;11.25;;;9.70;;
50591;SDS011;36548;50.506;30.834;2023-03-01T02:27:55;11.62;;;9.88;;
50591;SDS011;36548;50.506;30.834;2023-03-01T02:29:07;13.62;;;10.37;;
50591;SDS011;36548;50.506;30.834;2023-03-01T02:30:17;12.82;;;10.35;;
50591;SDS011;36548;50.506;30.834;2023-03-01T02:31:28;11.95;;;10.25;;
50591;SDS011;36548;50.506;30.834;2023-03-01T02:32:54;14.08;;;10.17;;
50591;SDS011;36548;50.506;30.834;2023-03-01T02:34:15;13.82;;;11.18;;
50591;SDS011;36548;50.506;30.834;2023-03-01T02:35:27;14.25;;;11.22;;
50591;SDS011;36548;50.506;30.834;2023-03-01T02:36:37;14.80;;;11.50;;
50591;SDS011;36548;50.506;30.834;2023-03-01T02:37:58;12.10;;;9.92;;
50591;SDS011;36548;50.506;30.834;2023-03-01T02:39:10;12.68;;;11.08;;
50591;SDS011;36548;50.506;30.834;2023-03-01T02:40:30;12.70;;;10.30;;
50591;SDS011;36548;50.506;30.834;2023-03-01T02:41:49;14.28;;;10.83;;
50591;SDS011;36548;50.506;30.834;2023-03-01T02:43:00;13.55;;;11.00;;
50591;SDS011;36548;50.506;30.834;2023-03-01T02:44:12;14.05;;;11.40;;
50591;SDS011;36548;50.506;30.834;2023-03-01T02:45:27;15.03;;;11.45;;
50591;SDS011;36548;50.506;30.834;2023-03-01T02:46:48;12.62;;;10.40;;
50591;SDS011;36548;50.506;30.834;2023-03-01T02:47:59;13.15;;;10.80;;
50591;SDS011;36548;50.506;30.834;2023-03-01T02:50:44;12.53;;;10.07;;
50591;SDS011;36548;50.506;30.834;2023-03-01T02:53:19;13.20;;;10.50;;
50591;SDS011;36548;50.506;30.834;2023-03-01T02:56:08;12.98;;;10.25;;
50591;SDS011;36548;50.506;30.834;2023-03-01T02:57:18;13.25;;;10.40;;
50591;SDS011;36548;50.506;30.834;2023-03-01T02:59:39;12.60;;;9.55;;
50591;SDS011;36548;50.506;30.834;2023-03-01T03:00:51;12.02;;;10.22;;
50591;SDS011;36548;50.506;30.834;2023-03-01T03:02:07;14.10;;;10.85;;
50591;SDS011;36548;50.506;30.834;2023-03-01T03:03:19;12.27;;;10.65;;
50591;SDS011;36548;50.506;30.834;2023-03-01T03:04:30;13.15;;;11.17;;
50591;SDS011;36548;50.506;30.834;2023-03-01T03:05:39;14.32;;;10.83;;
50591;SDS011;36548;50.506;30.834;2023-03-01T03:06:50;12.27;;;10.35;;
50591;SDS011;36548;50.506;30.834;2023-03-01T03:08:01;12.80;;;10.17;;
50591;SDS011;36548;50.506;30.834;2023-03-01T03:09:15;14.37;;;10.27;;
50591;SDS011;36548;50.506;30.834;2023-03-01T03:10:26;12.60;;;10.75;;
50591;SDS011;36548;50.506;30.834;2023-03-01T03:11:39;13.50;;;11.00;;
50591;SDS011;36548;50.506;30.834;2023-03-01T03:12:54;13.82;;;10.75;;
50591;SDS011;36548;50.506;30.834;2023-03-01T03:14:03;14.07;;;10.52;;
50591;SDS011;36548;50.506;30.834;2023-03-01T03:16:24;13.80;;;10.30;;
50591;SDS011;36548;50.506;30.834;2023-03-01T03:17:35;13.30;;;10.35;;
50591;SDS011;36548;50.506;30.834;2023-03-01T03:18:48;10.92;;;9.60;;
50591;SDS011;36548;50.506;30.834;2023-03-01T03:19:58;14.38;;;11.28;;
50591;SDS011;36548;50.506;30.834;2023-03-01T03:22:30;14.15;;;10.05;;
50591;SDS011;36548;50.506;30.834;2023-03-01T03:23:40;12.68;;;10.27;;
50591;SDS011;36548;50.506;30.834;2023-03-01T03:24:48;13.08;;;10.03;;
50591;SDS011;36548;50.506;30.834;2023-03-01T03:25:58;12.43;;;10.82;;
50591;SDS011;36548;50.506;30.834;2023-03-01T03:27:08;13.40;;;10.15;;
50591;SDS011;36548;50.506;30.834;2023-03-01T03:28:18;13.93;;;10.58;;
50591;SDS011;36548;50.506;30.834;2023-03-01T03:29:29;12.78;;;10.38;;
50591;SDS011;36548;50.506;30.834;2023-03-01T03:30:38;11.10;;;9.45;;
50591;SDS011;36548;50.506;30.834;2023-03-01T03:31:50;13.47;;;10.20;;
50591;SDS011;36548;50.506;30.834;2023-03-01T03:32:59;11.10;;;8.83;;
50591;SDS011;36548;50.506;30.834;2023-03-01T03:34:10;12.20;;;10.55;;
50591;SDS011;36548;50.506;30.834;2023-03-01T03:35:26;14.37;;;11.28;;
50591;SDS011;36548;50.506;30.834;2023-03-01T03:36:39;13.47;;;10.97;;
50591;SDS011;36548;50.506;30.834;2023-03-01T03:37:48;12.27;;;10.08;;
50591;SDS011;36548;50.506;30.834;2023-03-01T03:39:11;17.10;;;10.73;;
50591;SDS011;36548;50.506;30.834;2023-03-01T03:40:20;14.78;;;11.00;;
50591;SDS011;36548;50.506;30.834;2023-03-01T03:41:29;14.48;;;10.95;;
50591;SDS011;36548;50.506;30.834;2023-03-01T03:42:38;12.02;;;10.18;;
50591;SDS011;36548;50.506;30.834;2023-03-01T03:43:48;13.80;;;10.68;;
50591;SDS011;36548;50.506;30.834;2023-03-01T03:44:57;14.17;;;11.65;;
50591;SDS011;36548;50.506;30.834;2023-03-01T03:46:12;14.52;;;10.55;;
50591;SDS011;36548;50.506;30.834;2023-03-01T03:47:21;13.47;;;11.13;;
50591;SDS011;36548;50.506;30.834;2023-03-01T03:48:33;15.52;;;10.50;;
50591;SDS011;36548;50.506;30.834;2023-03-01T03:49:43;13.72;;;10.70;;
50591;SDS011;36548;50.506;30.834;2023-03-01T03:50:55;14.30;;;10.37;;
50591;SDS011;36548;50.506;30.834;2023-03-01T03:52:06;13.80;;;10.92;;
50591;SDS011;36548;50.506;30.834;2023-03-01T03:53:17;12.62;;;11.15;;
50591;SDS011;36548;50.506;30.834;2023-03-01T03:54:26;17.12;;;12.08;;
50591;SDS011;36548;50.506;30.834;2023-03-01T03:55:35;13.52;;;10.78;;
50591;SDS011;36548;50.506;30.834;2023-03-01T03:56:48;13.75;;;10.85;;
50591;SDS011;36548;50.506;30.834;2023-03-01T03:57:58;12.78;;;10.82;;
50591;SDS011;36548;50.506;30.834;2023-03-01T03:59:10;11.73;;;10.47;;
50591;SDS011;36548;50.506;30.834;2023-03-01T04:00:21;13.00;;;10.60;;
50591;SDS011;36548;50.506;30.834;2023-03-01T04:01:32;14.00;;;11.85;;
50591;SDS011;36548;50.506;30.834;2023-03-01T04:02:42;13.00;;;11.30;;
50591;SDS011;36548;50.506;30.834;2023-03-01T04:03:52;14.82;;;11.92;;
50591;SDS011;36548;50.506;30.834;2023-03-01T04:05:04;14.58;;;12.70;;
50591;SDS011;36548;50.506;30.834;2023-03-01T04:06:21;13.13;;;10.62;;
50591;SDS011;36548;50.506;30.834;2023-03-01T04:07:29;13.85;;;11.13;;
50591;SDS011;36548;50.506;30.834;2023-03-01T04:08:38;16.90;;;12.35;;
50591;SDS011;36548;50.506;30.834;2023-03-01T04:09:49;13.78;;;11.03;;
50591;SDS011;36548;50.506;30.834;2023-03-01T04:11:00;15.55;;;11.55;;
50591;SDS011;36548;50.506;30.834;2023-03-01T04:12:29;13.68;;;10.88;;
50591;SDS011;36548;50.506;30.834;2023-03-01T04:13:40;14.75;;;12.28;;
50591;SDS011;36548;50.506;30.834;2023-03-01T04:14:48;15.02;;;10.88;;
50591;SDS011;36548;50.506;30.834;2023-03-01T04:15:58;14.52;;;12.03;;
50591;SDS011;36548;50.506;30.834;2023-03-01T04:17:07;16.03;;;11.47;;
50591;SDS011;36548;50.506;30.834;2023-03-01T04:18:17;15.40;;;11.65;;
50591;SDS011;36548;50.506;30.834;2023-03-01T04:19:27;13.10;;;11.43;;
50591;SDS011;36548;50.506;30.834;2023-03-01T04:20:37;14.10;;;10.98;;
50591;SDS011;36548;50.506;30.834;2023-03-01T04:21:46;67.25;;;15.72;;
50591;SDS011;36548;50.506;30.834;2023-03-01T04:22:59;162.78;;;27.62;;
50591;SDS011;36548;50.506;30.834;2023-03-01T04:24:12;142.65;;;25.00;;
50591;SDS011;36548;50.506;30.834;2023-03-01T04:25:23;19.30;;;12.20;;
50591;SDS011;36548;50.506;30.834;2023-03-01T04:26:38;15.07;;;11.68;;
50591;SDS011;36548;50.506;30.834;2023-03-01T04:27:53;15.15;;;11.72;;
50591;SDS011;36548;50.506;30.834;2023-03-01T04:29:02;15.30;;;11.62;;
50591;SDS011;36548;50.506;30.834;2023-03-01T04:30:12;16.10;;;11.93;;
50591;SDS011;36548;50.506;30.834;2023-03-01T04:31:28;17.15;;;11.40;;
50591;SDS011;36548;50.506;30.834;2023-03-01T04:32:37;14.40;;;10.80;;
50591;SDS011;36548;50.506;30.834;2023-03-01T04:33:53;14.75;;;11.25;;
50591;SDS011;36548;50.506;30.834;2023-03-01T04:35:01;14.65;;;11.60;;
50591;SDS011;36548;50.506;30.834;2023-03-01T04:36:11;15.33;;;10.70;;
50591;SDS011;36548;50.506;30.834;2023-03-01T04:37:22;19.93;;;11.77;;
50591;SDS011;36548;50.506;30.834;2023-03-01T04:38:32;17.45;;;11.60;;
50591;SDS011;36548;50.506;30.834;2023-03-01T04:39:43;14.97;;;11.73;;
50591;SDS011;36548;50.506;30.834;2023-03-01T04:41:06;14.30;;;11.48;;
50591;SDS011;36548;50.506;30.834;2023-03-01T04:42:17;18.33;;;13.30;;
50591;SDS011;36548;50.506;30.834;2023-03-01T04:43:28;13.80;;;11.83;;
50591;SDS011;36548;50.506;30.834;2023-03-01T04:44:38;18.67;;;12.65;;
50591;SDS011;36548;50.506;30.834;2023-03-01T04:45:46;16.85;;;12.95;;
50591;SDS011;36548;50.506;30.834;2023-03-01T04:46:57;19.53;;;12.82;;
50591;SDS011;36548;50.506;30.834;2023-03-01T04:48:07;15.77;;;13.12;;
50591;SDS011;36548;50.506;30.834;2023-03-01T04:49:17;15.20;;;12.40;;
50591;SDS011;36548;50.506;30.834;2023-03-01T04:50:27;16.68;;;12.35;;
50591;SDS011;36548;50.506;30.834;2023-03-01T04:51:37;14.42;;;11.93;;
50591;SDS011;36548;50.506;30.834;2023-03-01T04:52:46;15.54;;;11.94;;
50591;SDS011;36548;50.506;30.834;2023-03-01T04:53:56;14.20;;;12.73;;
50591;SDS011;36548;50.506;30.834;2023-03-01T04:55:11;16.22;;;11.52;;
50591;SDS011;36548;50.506;30.834;2023-03-01T04:56:20;14.35;;;11.42;;
50591;SDS011;36548;50.506;30.834;2023-03-01T04:57:30;13.30;;;11.60;;
50591;SDS011;36548;50.506;30.834;2023-03-01T04:58:46;16.52;;;12.22;;
50591;SDS011;36548;50.506;30.834;2023-03-01T04:59:55;14.28;;;11.52;;
50591;SDS011;36548;50.506;30.834;2023-03-01T05:01:10;15.55;;;13.05;;
50591;SDS011;36548;50.506;30.834;2023-03-01T05:02:29;14.42;;;11.85;;
50591;SDS011;36548;50.506;30.834;2023-03-01T05:03:39;17.12;;;12.20;;
50591;SDS011;36548;50.506;30.834;2023-03-01T05:04:54;15.48;;;11.98;;
50591;SDS011;36548;50.506;30.834;2023-03-01T05:06:05;15.52;;;12.60;;
50591;SDS011;36548;50.506;30.834;2023-03-01T05:07:15;14.37;;;11.80;;
50591;SDS011;36548;50.506;30.834;2023-03-01T05:08:33;15.43;;;12.12;;
50591;SDS011;36548;50.506;30.834;2023-03-01T05:09:43;14.90;;;11.85;;
50591;SDS011;36548;50.506;30.834;2023-03-01T05:10:52;15.52;;;12.68;;
50591;SDS011;36548;50.506;30.834;2023-03-01T05:12:08;16.50;;;12.62;;
50591;SDS011;36548;50.506;30.834;2023-03-01T05:13:19;16.30;;;12.20;;
50591;SDS011;36548;50.506;30.834;2023-03-01T05:14:30;15.27;;;12.58;;
50591;SDS011;36548;50.506;30.834;2023-03-01T05:15:39;15.90;;;12.12;;
50591;SDS011;36548;50.506;30.834;2023-03-01T05:16:54;16.77;;;13.22;;
50591;SDS011;36548;50.506;30.834;2023-03-01T05:18:05;18.22;;;13.65;;
50591;SDS011;36548;50.506;30.834;2023-03-01T05:19:23;15.83;;;13.00;;
50591;SDS011;36548;50.506;30.834;2023-03-01T05:20:32;17.93;;;12.63;;
50591;SDS011;36548;50.506;30.834;2023-03-01T05:21:50;16.62;;;13.00;;
50591;SDS011;36548;50.506;30.834;2023-03-01T05:23:19;16.97;;;12.68;;
50591;SDS011;36548;50.506;30.834;2023-03-01T05:24:28;15.93;;;12.30;;
50591;SDS011;36548;50.506;30.834;2023-03-01T05:25:45;17.72;;;13.40;;
50591;SDS011;36548;50.506;30.834;2023-03-01T05:26:54;18.20;;;13.43;;
50591;SDS011;36548;50.506;30.834;2023-03-01T05:28:12;16.65;;;12.35;;
50591;SDS011;36548;50.506;30.834;2023-03-01T05:29:24;15.40;;;12.65;;
50591;SDS011;36548;50.506;30.834;2023-03-01T05:30:41;17.68;;;14.28;;
50591;SDS011;36548;50.506;30.834;2023-03-01T05:31:57;16.72;;;12.80;;
50591;SDS011;36548;50.506;30.834;2023-03-01T05:33:14;15.55;;;11.60;;
50591;SDS011;36548;50.506;30.834;2023-03-01T05:34:24;15.83;;;12.37;;
50591;SDS011;36548;50.506;30.834;2023-03-01T05:35:35;13.38;;;11.77;;
50591;SDS011;36548;50.506;30.834;2023-03-01T05:36:45;17.20;;;11.92;;
50591;SDS011;36548;50.506;30.834;2023-03-01T05:37:54;14.75;;;12.20;;
50591;SDS011;36548;50.506;30.834;2023-03-01T05:39:03;17.62;;;12.13;;
50591;SDS011;36548;50.506;30.834;2023-03-01T05:40:18;79.73;;;71.28;;
50591;SDS011;36548;50.506;30.834;2023-03-01T05:41:33;54.20;;;46.42;;
50591;SDS011;36548;50.506;30.834;2023-03-01T05:42:50;28.15;;;22.50;;
50591;SDS011;36548;50.506;30.834;2023-03-01T05:44:05;29.92;;;26.68;;
50591;SDS011;36548;50.506;30.834;2023-03-01T05:45:16;18.95;;;14.47;;
50591;SDS011;36548;50.506;30.834;2023-03-01T05:46:26;16.40;;;12.90;;
50591;SDS011;36548;50.506;30.834;2023-03-01T05:48:45;19.83;;;13.03;;
50591;SDS011;36548;50.506;30.834;2023-03-01T05:49:55;14.85;;;12.65;;
50591;SDS011;36548;50.506;30.834;2023-03-01T05:51:06;15.12;;;12.70;;
50591;SDS011;36548;50.506;30.834;2023-03-01T05:52:16;15.43;;;12.42;;
50591;SDS011;36548;50.506;30.834;2023-03-01T05:53:31;18.45;;;12.30;;
50591;SDS011;36548;50.506;30.834;2023-03-01T05:54:40;18.33;;;12.92;;
50591;SDS011;36548;50.506;30.834;2023-03-01T05:55:49;14.75;;;12.03;;
50591;SDS011;36548;50.506;30.834;2023-03-01T05:56:58;17.68;;;13.13;;
50591;SDS011;36548;50.506;30.834;2023-03-01T05:58:08;16.85;;;12.90;;
50591;SDS011;36548;50.506;30.834;2023-03-01T05:59:22;17.47;;;13.27;;
50591;SDS011;36548;50.506;30.834;2023-03-01T06:00:33;17.53;;;13.10;;
50591;SDS011;36548;50.506;30.834;2023-03-01T06:01:49;14.05;;;11.85;;
50591;SDS011;36548;50.506;30.834;2023-03-01T06:02:58;16.80;;;12.70;;
50591;SDS011;36548;50.506;30.834;2023-03-01T06:04:09;16.92;;;12.58;;
50591;SDS011;36548;50.506;30.834;2023-03-01T06:05:18;15.20;;;13.07;;
50591;SDS011;36548;50.506;30.834;2023-03-01T06:06:28;16.28;;;12.68;;
50591;SDS011;36548;50.506;30.834;2023-03-01T06:07:38;17.38;;;12.22;;
50591;SDS011;36548;50.506;30.834;2023-03-01T06:08:48;16.65;;;12.77;;
50591;SDS011;36548;50.506;30.834;2023-03-01T06:09:58;16.30;;;12.85;;
50591;SDS011;36548;50.506;30.834;2023-03-01T06:11:06;16.15;;;12.05;;
50591;SDS011;36548;50.506;30.834;2023-03-01T06:12:18;14.58;;;12.90;;
50591;SDS011;36548;50.506;30.834;2023-03-01T06:13:33;13.77;;;12.23;;
50591;SDS011;36548;50.506;30.834;2023-03-01T06:14:44;14.90;;;11.95;;
50591;SDS011;36548;50.506;30.834;2023-03-01T06:15:55;16.58;;;11.72;;
50591;SDS011;36548;50.506;30.834;2023-03-01T06:17:04;20.42;;;12.15;;
50591;SDS011;36548;50.506;30.834;2023-03-01T06:18:20;16.17;;;13.10;;
50591;SDS011;36548;50.506;30.834;2023-03-01T06:19:29;17.25;;;13.30;;
50591;SDS011;36548;50.506;30.834;2023-03-01T06:20:38;16.73;;;12.83;;
50591;SDS011;36548;50.506;30.834;2023-03-01T06:21:47;16.30;;;13.20;;
50591;SDS011;36548;50.506;30.834;2023-03-01T06:22:56;16.28;;;12.64;;
50591;SDS011;36548;50.506;30.834;2023-03-01T06:24:06;14.65;;;12.55;;
50591;SDS011;36548;50.506;30.834;2023-03-01T06:25:17;18.88;;;13.82;;
50591;SDS011;36548;50.506;30.834;2023-03-01T06:26:35;16.68;;;13.08;;
50591;SDS011;36548;50.506;30.834;2023-03-01T06:27:45;16.47;;;12.40;;
50591;SDS011;36548;50.506;30.834;2023-03-01T06:28:54;16.58;;;13.95;;
50591;SDS011;36548;50.506;30.834;2023-03-01T06:30:04;16.03;;;12.43;;
50591;SDS011;36548;50.506;30.834;2023-03-01T06:31:15;16.08;;;13.15;;
50591;SDS011;36548;50.506;30.834;2023-03-01T06:32:24;16.20;;;12.63;;
50591;SDS011;36548;50.506;30.834;2023-03-01T06:33:39;13.87;;;11.97;;
50591;SDS011;36548;50.506;30.834;2023-03-01T06:34:49;17.23;;;13.83;;
50591;SDS011;36548;50.506;30.834;2023-03-01T06:35:58;15.07;;;12.78;;
50591;SDS011;36548;50.506;30.834;2023-03-01T06:37:07;18.52;;;12.68;;
50591;SDS011;36548;50.506;30.834;2023-03-01T06:38:17;17.80;;;12.75;;
50591;SDS011;36548;50.506;30.834;2023-03-01T06:39:27;17.25;;;13.75;;
50591;SDS011;36548;50.506;30.834;2023-03-01T06:40:37;15.88;;;13.26;;
50591;SDS011;36548;50.506;30.834;2023-03-01T06:41:46;15.07;;;13.15;;
50591;SDS011;36548;50.506;30.834;2023-03-01T06:42:55;16.35;;;12.73;;
50591;SDS011;36548;50.506;30.834;2023-03-01T06:44:10;17.52;;;13.32;;
50591;SDS011;36548;50.506;30.834;2023-03-01T06:45:19;18.03;;;13.43;;
50591;SDS011;36548;50.506;30.834;2023-03-01T06:46:29;16.45;;;13.30;;
50591;SDS011;36548;50.506;30.834;2023-03-01T06:48:49;19.52;;;13.20;;
50591;SDS011;36548;50.506;30.834;2023-03-01T06:50:00;16.52;;;13.58;;
50591;SDS011;36548;50.506;30.834;2023-03-01T06:51:17;17.72;;;14.08;;
50591;SDS011;36548;50.506;30.834;2023-03-01T06:52:26;16.80;;;12.70;;
50591;SDS011;36548;50.506;30.834;2023-03-01T06:53:35;16.95;;;13.05;;
50591;SDS011;36548;50.506;30.834;2023-03-01T06:54:44;14.98;;;12.68;;
50591;SDS011;36548;50.506;30.834;2023-03-01T06:55:54;18.50;;;13.85;;
50591;SDS011;36548;50.506;30.834;2023-03-01T06:57:10;17.48;;;14.12;;
50591;SDS011;36548;50.506;30.834;2023-03-01T06:58:19;16.45;;;14.35;;
50591;SDS011;36548;50.506;30.834;2023-03-01T06:59:30;18.45;;;14.45;;
50591;SDS011;36548;50.506;30.834;2023-03-01T07:00:40;16.02;;;13.23;;
50591;SDS011;36548;50.506;30.834;2023-03-01T07:01:51;16.70;;;14.45;;
50591;SDS011;36548;50.506;30.834;2023-03-01T07:03:01;17.88;;;14.38;;
50591;SDS011;36548;50.506;30.834;2023-03-01T07:04:17;18.24;;;14.44;;
50591;SDS011;36548;50.506;30.834;2023-03-01T07:05:26;17.33;;;13.85;;
50591;SDS011;36548;50.506;30.834;2023-03-01T07:06:36;18.18;;;14.32;;
50591;SDS011;36548;50.506;30.834;2023-03-01T07:07:44;17.45;;;14.60;;
50591;SDS011;36548;50.506;30.834;2023-03-01T07:08:54;17.28;;;14.07;;
50591;SDS011;36548;50.506;30.834;2023-03-01T07:10:03;17.48;;;14.53;;
50591;SDS011;36548;50.506;30.834;2023-03-01T07:11:12;16.18;;;13.68;;
50591;SDS011;36548;50.506;30.834;2023-03-01T07:12:22;20.28;;;15.05;;
50591;SDS011;36548;50.506;30.834;2023-03-01T07:13:31;18.17;;;14.07;;
50591;SDS011;36548;50.506;30.834;2023-03-01T07:14:40;16.77;;;13.37;;